Islip, NY

1:24 AM EDT on May 06, 2016 (GMT -0400)
East Islip | | Change Station
Active Advisory: Coastal Flood Advisory

Elev 20 ft 40.72 °N, 73.18 °W | Updated 26 seconds ago

Overcast
Overcast
49.1 °F
Feels Like 48 °F
N
3.2
Wind Variable Wind from East

Today
High -- | Low -- °F
--% Chance of Precip.
Yesterday
High -- | Low -- °F
Precip. -- in
Pressure 29.66 in
Visibility 10.0 miles
Clouds Overcast 2100 ft
Windchill 48 °F
Dew Point 43 °F
Humidity 80%
Rainfall 0.00 in
Snow Depth Not available.
5:44 AM 7:54 PM
Waning Crescent, 1% visible
METAR KISP 060456Z AUTO 03012KT 10SM OVC021 09/06 A2966 RMK AO2 SLP043 T00940056 401170072
Pressure 29.66 in
Visibility 10.0 miles
Clouds Overcast 2100 ft
Windchill 48 °F
Dew Point 43 °F
Humidity 80%
Rainfall 0.00 in
Snow Depth Not available.
5:44 AM 7:54 PM
Waning Crescent, 1% visible
METAR KISP 060456Z AUTO 03012KT 10SM OVC021 09/06 A2966 RMK AO2 SLP043 T00940056 401170072

10-Day Weather Forecast

Almanac

Astronomy

May. 06, 2016 Rise Set
Actual Time
Civil Twilight
Nautical Twilight
Astronomical Twilight
Moon
Length of Visible Light
Length of Day
Tomorrow will be .
, % of the Moon is Illuminated

Today's Extremes

State Highs State Lows

Community

WunderPhotos

Upload Photos

1,910,122 photos uploaded!

WunderBlog® & News

Nearby

Air Quality

  Air Quality AQ Index Pollutant
Not available.

Snow Depth

Station Depth Elevation

Earthquake Activity

City Distance Mag. Time & Date
Minimum magnitude displayed is 2.5.

Coastal Water Temperatures

Place Temperature

Stations

Nearby Weather Stations

Station Location Temp. Windchill Dew Point Humidity Wind Precip. Elev Updated Type
                   

Watches & Warnings

Coastal Flood Advisory
Issued: 12:49 AM EDT May. 6, 2016 – National Weather Service

... Coastal Flood Advisory remains in effect from 9 PM this
evening to midnight EDT tonight...

* locations... tidal straits of southwest Suffolk.

* Tidal departures... 1 to 1 1/2 feet above astronomical tide
heights.

* Timing... around the times of high tide tonight.

* Impacts... minor flooding of some shore roads and/or
properties. Most roads should remain passable... with only
isolated closures. There is no significant threat to life...
and any impact on property is minimal.

Precautionary/preparedness actions...

A coastal Flood Advisory indicates that onshore winds and tides
will combine to generate flooding of low areas along the shore.


... South Shore bays water levels for Friday night...

Coastal... ... ... ... time of... ... .forecast total... ... ..flood... ..
Location... ... ... ..high Tide... ... .Water level... ... ... Category..
... ... ... ... ... ... ... ... ... ... ... ..(Mllw/ngvd)... ... ... ... ... ... .

Lindenhurst NY... ... ..1045 PM... ..3.3-3.6/... ... ... ... ..minor... .